sensor_id;sensor_type;location;lat;lon;timestamp;pressure;altitude;pressure_sealevel;temperature;humidity
22964;BME280;11648;49.306;6.934;2024-02-21T00:00:28;99376.19;;;13.94;61.07
22964;BME280;11648;49.306;6.934;2024-02-21T00:02:55;99381.66;;;13.79;61.17
22964;BME280;11648;49.306;6.934;2024-02-21T00:05:24;99385.03;;;13.93;60.94
22964;BME280;11648;49.306;6.934;2024-02-21T00:07:51;99384.13;;;13.97;61.02
22964;BME280;11648;49.306;6.934;2024-02-21T00:10:18;99372.59;;;14.03;61.18
22964;BME280;11648;49.306;6.934;2024-02-21T00:12:45;99368.16;;;14.02;60.90
22964;BME280;11648;49.306;6.934;2024-02-21T00:15:12;99370.97;;;13.86;61.20
22964;BME280;11648;49.306;6.934;2024-02-21T00:17:38;99362.94;;;13.96;61.26
22964;BME280;11648;49.306;6.934;2024-02-21T00:20:07;99365.69;;;13.85;61.20
22964;BME280;11648;49.306;6.934;2024-02-21T00:22:34;99358.56;;;13.93;61.41
22964;BME280;11648;49.306;6.934;2024-02-21T00:25:01;99352.41;;;13.91;61.28
22964;BME280;11648;49.306;6.934;2024-02-21T00:27:28;99336.50;;;13.93;61.34
22964;BME280;11648;49.306;6.934;2024-02-21T00:29:55;99329.50;;;13.89;61.41
22964;BME280;11648;49.306;6.934;2024-02-21T00:32:21;99336.59;;;13.83;60.78
22964;BME280;11648;49.306;6.934;2024-02-21T00:34:48;99336.66;;;13.76;61.53
22964;BME280;11648;49.306;6.934;2024-02-21T00:37:15;99331.34;;;13.80;60.92
22964;BME280;11648;49.306;6.934;2024-02-21T00:39:42;99328.59;;;13.90;61.00
22964;BME280;11648;49.306;6.934;2024-02-21T00:42:09;99329.59;;;13.76;60.97
22964;BME280;11648;49.306;6.934;2024-02-21T00:44:36;99327.91;;;13.69;61.17
22964;BME280;11648;49.306;6.934;2024-02-21T00:47:03;99326.84;;;13.90;60.92
22964;BME280;11648;49.306;6.934;2024-02-21T00:49:29;99315.50;;;13.76;61.23
22964;BME280;11648;49.306;6.934;2024-02-21T00:51:56;99316.56;;;13.57;61.51
22964;BME280;11648;49.306;6.934;2024-02-21T00:54:23;99326.19;;;13.68;61.17
22964;BME280;11648;49.306;6.934;2024-02-21T00:56:51;99320.94;;;13.59;61.31
22964;BME280;11648;49.306;6.934;2024-02-21T00:59:18;99322.72;;;13.60;61.42
22964;BME280;11648;49.306;6.934;2024-02-21T01:01:45;99319.19;;;13.60;61.73
22964;BME280;11648;49.306;6.934;2024-02-21T01:04:12;99313.13;;;13.49;62.06
22964;BME280;11648;49.306;6.934;2024-02-21T01:06:39;99307.78;;;13.53;61.67
22964;BME280;11648;49.306;6.934;2024-02-21T01:09:10;99293.69;;;13.53;61.73
22964;BME280;11648;49.306;6.934;2024-02-21T01:11:37;99276.91;;;13.55;61.89
22964;BME280;11648;49.306;6.934;2024-02-21T01:14:04;99281.31;;;13.58;61.79
22964;BME280;11648;49.306;6.934;2024-02-21T01:16:31;99275.03;;;13.68;61.72
22964;BME280;11648;49.306;6.934;2024-02-21T01:18:58;99277.59;;;13.74;61.61
22964;BME280;11648;49.306;6.934;2024-02-21T01:21:25;99293.28;;;13.94;61.44
22964;BME280;11648;49.306;6.934;2024-02-21T01:23:51;99290.81;;;13.75;61.11
22964;BME280;11648;49.306;6.934;2024-02-21T01:26:18;99270.53;;;13.74;61.04
22964;BME280;11648;49.306;6.934;2024-02-21T01:28:45;99261.47;;;13.97;60.15
22964;BME280;11648;49.306;6.934;2024-02-21T01:31:12;99261.56;;;13.89;60.44
22964;BME280;11648;49.306;6.934;2024-02-21T01:33:39;99265.00;;;13.94;60.57
22964;BME280;11648;49.306;6.934;2024-02-21T01:36:06;99256.25;;;13.88;61.01
22964;BME280;11648;49.306;6.934;2024-02-21T01:38:34;99252.56;;;14.04;60.29
22964;BME280;11648;49.306;6.934;2024-02-21T01:41:01;99242.84;;;14.04;60.35
22964;BME280;11648;49.306;6.934;2024-02-21T01:43:28;99248.19;;;14.00;60.43
22964;BME280;11648;49.306;6.934;2024-02-21T01:45:56;99242.28;;;13.76;60.70
22964;BME280;11648;49.306;6.934;2024-02-21T01:48:24;99247.34;;;13.96;60.55
22964;BME280;11648;49.306;6.934;2024-02-21T01:50:54;99241.88;;;14.11;60.22
22964;BME280;11648;49.306;6.934;2024-02-21T01:53:30;99242.09;;;13.92;60.41
22964;BME280;11648;49.306;6.934;2024-02-21T01:55:59;99248.38;;;13.83;60.74
22964;BME280;11648;49.306;6.934;2024-02-21T01:58:27;99247.53;;;13.81;61.18
22964;BME280;11648;49.306;6.934;2024-02-21T02:00:56;99243.16;;;13.77;60.52
22964;BME280;11648;49.306;6.934;2024-02-21T02:03:23;99235.28;;;13.71;60.61
22964;BME280;11648;49.306;6.934;2024-02-21T02:05:52;99239.00;;;13.52;61.13
22964;BME280;11648;49.306;6.934;2024-02-21T02:08:19;99234.72;;;13.40;61.52
22964;BME280;11648;49.306;6.934;2024-02-21T02:10:46;99241.78;;;13.41;61.19
22964;BME280;11648;49.306;6.934;2024-02-21T02:13:13;99235.75;;;13.27;61.97
22964;BME280;11648;49.306;6.934;2024-02-21T02:15:44;99236.63;;;13.26;62.10
22964;BME280;11648;49.306;6.934;2024-02-21T02:18:13;99232.31;;;13.16;62.47
22964;BME280;11648;49.306;6.934;2024-02-21T02:20:40;99223.53;;;13.08;62.39
22964;BME280;11648;49.306;6.934;2024-02-21T02:23:10;99211.97;;;13.24;62.44
22964;BME280;11648;49.306;6.934;2024-02-21T02:25:38;99217.16;;;13.36;62.39
22964;BME280;11648;49.306;6.934;2024-02-21T02:28:06;99220.59;;;13.41;61.70
22964;BME280;11648;49.306;6.934;2024-02-21T02:30:36;99209.94;;;13.50;61.68
22964;BME280;11648;49.306;6.934;2024-02-21T02:33:04;99206.34;;;13.57;60.86
22964;BME280;11648;49.306;6.934;2024-02-21T02:35:32;99209.94;;;13.50;61.46
22964;BME280;11648;49.306;6.934;2024-02-21T02:37:59;99198.41;;;13.57;61.07
22964;BME280;11648;49.306;6.934;2024-02-21T02:40:26;99178.13;;;13.56;60.67
22964;BME280;11648;49.306;6.934;2024-02-21T02:42:53;99162.97;;;13.72;60.40
22964;BME280;11648;49.306;6.934;2024-02-21T02:45:23;99174.72;;;13.47;61.03
22964;BME280;11648;49.306;6.934;2024-02-21T02:47:53;99165.75;;;13.58;60.39
22964;BME280;11648;49.306;6.934;2024-02-21T02:50:27;99159.56;;;13.59;60.92
22964;BME280;11648;49.306;6.934;2024-02-21T02:52:54;99151.72;;;13.52;60.91
22964;BME280;11648;49.306;6.934;2024-02-21T02:55:22;99155.31;;;13.46;61.11
22964;BME280;11648;49.306;6.934;2024-02-21T02:57:49;99151.63;;;13.59;60.83
22964;BME280;11648;49.306;6.934;2024-02-21T03:00:16;99151.75;;;13.50;60.49
22964;BME280;11648;49.306;6.934;2024-02-21T03:02:46;99160.66;;;13.43;61.14
22964;BME280;11648;49.306;6.934;2024-02-21T03:05:16;99162.25;;;13.56;60.69
22964;BME280;11648;49.306;6.934;2024-02-21T03:07:44;99155.06;;;13.67;60.14
22964;BME280;11648;49.306;6.934;2024-02-21T03:10:12;99153.47;;;13.53;60.44
22964;BME280;11648;49.306;6.934;2024-02-21T03:12:40;99155.16;;;13.58;60.57
22964;BME280;11648;49.306;6.934;2024-02-21T03:15:07;99151.59;;;13.62;60.17
22964;BME280;11648;49.306;6.934;2024-02-21T03:17:34;99156.13;;;13.53;60.21
22964;BME280;11648;49.306;6.934;2024-02-21T03:20:02;99151.69;;;13.56;60.43
22964;BME280;11648;49.306;6.934;2024-02-21T03:22:32;99151.94;;;13.33;60.74
22964;BME280;11648;49.306;6.934;2024-02-21T03:25:01;99152.72;;;13.42;60.93
22964;BME280;11648;49.306;6.934;2024-02-21T03:27:29;99151.72;;;13.53;60.26
22964;BME280;11648;49.306;6.934;2024-02-21T03:29:56;99149.06;;;13.52;60.36
22964;BME280;11648;49.306;6.934;2024-02-21T03:32:25;99143.91;;;13.41;60.76
22964;BME280;11648;49.306;6.934;2024-02-21T03:34:53;99134.13;;;13.48;60.29
22964;BME280;11648;49.306;6.934;2024-02-21T03:37:19;99132.31;;;13.53;60.30
22964;BME280;11648;49.306;6.934;2024-02-21T03:39:46;99133.25;;;13.50;59.78
22964;BME280;11648;49.306;6.934;2024-02-21T03:42:13;99133.25;;;13.50;59.84
22964;BME280;11648;49.306;6.934;2024-02-21T03:44:40;99137.53;;;13.60;59.85
22964;BME280;11648;49.306;6.934;2024-02-21T03:47:07;99135.00;;;13.50;59.80
22964;BME280;11648;49.306;6.934;2024-02-21T03:49:37;99127.94;;;13.50;59.66
22964;BME280;11648;49.306;6.934;2024-02-21T03:52:05;99121.06;;;13.34;59.89
22964;BME280;11648;49.306;6.934;2024-02-21T03:54:31;99122.13;;;13.19;60.49
22964;BME280;11648;49.306;6.934;2024-02-21T03:56:58;99122.91;;;13.26;60.45
22964;BME280;11648;49.306;6.934;2024-02-21T03:59:25;99105.88;;;13.51;59.09
22964;BME280;11648;49.306;6.934;2024-02-21T04:01:52;99094.34;;;13.57;59.20
22964;BME280;11648;49.306;6.934;2024-02-21T04:04:20;99092.72;;;13.45;59.33
22964;BME280;11648;49.306;6.934;2024-02-21T04:06:48;99089.25;;;13.43;59.42
22964;BME280;11648;49.306;6.934;2024-02-21T04:09:15;99094.41;;;13.52;59.27
22964;BME280;11648;49.306;6.934;2024-02-21T04:11:42;99091.75;;;13.54;58.95
22964;BME280;11648;49.306;6.934;2024-02-21T04:14:09;99086.47;;;13.52;59.25
22964;BME280;11648;49.306;6.934;2024-02-21T04:16:38;99090.84;;;13.56;58.94
22964;BME280;11648;49.306;6.934;2024-02-21T04:19:06;99075.88;;;13.54;58.62
22964;BME280;11648;49.306;6.934;2024-02-21T04:21:33;99068.84;;;13.51;59.04
22964;BME280;11648;49.306;6.934;2024-02-21T04:24:00;99067.13;;;13.49;58.97
22964;BME280;11648;49.306;6.934;2024-02-21T04:26:28;99064.75;;;13.27;59.01
22964;BME280;11648;49.306;6.934;2024-02-21T04:28:55;99070.88;;;13.31;58.86
22964;BME280;11648;49.306;6.934;2024-02-21T04:31:22;99060.34;;;13.28;58.68
22964;BME280;11648;49.306;6.934;2024-02-21T04:33:49;99050.84;;;13.10;59.19
22964;BME280;11648;49.306;6.934;2024-02-21T04:36:16;99055.13;;;13.20;58.49
22964;BME280;11648;49.306;6.934;2024-02-21T04:38:43;99048.84;;;13.30;58.55
22964;BME280;11648;49.306;6.934;2024-02-21T04:41:10;99049.06;;;13.14;58.06
22964;BME280;11648;49.306;6.934;2024-02-21T04:43:36;99040.81;;;13.38;57.42
22964;BME280;11648;49.306;6.934;2024-02-21T04:46:04;99034.88;;;13.19;57.78
22964;BME280;11648;49.306;6.934;2024-02-21T04:48:31;99028.03;;;13.00;58.41
22964;BME280;11648;49.306;6.934;2024-02-21T04:50:59;99028.13;;;12.93;58.51
22964;BME280;11648;49.306;6.934;2024-02-21T04:53:26;99035.94;;;13.03;57.91
22964;BME280;11648;49.306;6.934;2024-02-21T04:55:52;99035.84;;;13.08;58.10
22964;BME280;11648;49.306;6.934;2024-02-21T04:58:19;99042.97;;;13.01;58.48
22964;BME280;11648;49.306;6.934;2024-02-21T05:00:46;99035.72;;;13.23;57.69
22964;BME280;11648;49.306;6.934;2024-02-21T05:03:16;99032.44;;;12.98;58.38
22964;BME280;11648;49.306;6.934;2024-02-21T05:05:43;99033.06;;;13.23;57.81
22964;BME280;11648;49.306;6.934;2024-02-21T05:08:10;99036.59;;;13.23;57.72
22964;BME280;11648;49.306;6.934;2024-02-21T05:10:37;99037.75;;;12.98;58.39
22964;BME280;11648;49.306;6.934;2024-02-21T05:13:04;99039.63;;;12.88;58.62
22964;BME280;11648;49.306;6.934;2024-02-21T05:15:31;99046.41;;;13.12;58.56
22964;BME280;11648;49.306;6.934;2024-02-21T05:17:59;99034.13;;;13.05;58.75
22964;BME280;11648;49.306;6.934;2024-02-21T05:20:26;99046.75;;;12.80;59.22
22964;BME280;11648;49.306;6.934;2024-02-21T05:22:53;99042.97;;;13.03;58.87
22964;BME280;11648;49.306;6.934;2024-02-21T05:25:20;99053.78;;;12.81;59.37
22964;BME280;11648;49.306;6.934;2024-02-21T05:27:47;99048.34;;;12.97;59.06
22964;BME280;11648;49.306;6.934;2024-02-21T05:30:14;99039.44;;;13.04;59.16
22964;BME280;11648;49.306;6.934;2024-02-21T05:32:41;99032.41;;;13.03;59.31
22964;BME280;11648;49.306;6.934;2024-02-21T05:35:08;99025.38;;;13.02;59.27
22964;BME280;11648;49.306;6.934;2024-02-21T05:37:35;99020.13;;;12.99;59.71
22964;BME280;11648;49.306;6.934;2024-02-21T05:40:02;99019.41;;;12.84;60.32
22964;BME280;11648;49.306;6.934;2024-02-21T05:42:29;99024.66;;;12.87;60.05
22964;BME280;11648;49.306;6.934;2024-02-21T05:44:56;99023.59;;;13.01;60.10
22964;BME280;11648;49.306;6.934;2024-02-21T05:47:23;99023.81;;;12.85;60.50
22964;BME280;11648;49.306;6.934;2024-02-21T05:49:49;99022.00;;;12.89;60.50
22964;BME280;11648;49.306;6.934;2024-02-21T05:52:20;99014.88;;;12.94;60.55
22964;BME280;11648;49.306;6.934;2024-02-21T05:54:47;99010.47;;;12.95;60.53
22964;BME280;11648;49.306;6.934;2024-02-21T05:57:17;99012.09;;;13.05;59.86
22964;BME280;11648;49.306;6.934;2024-02-21T05:59:44;99004.13;;;13.12;59.96
22964;BME280;11648;49.306;6.934;2024-02-21T06:02:11;99015.63;;;13.10;60.13
22964;BME280;11648;49.306;6.934;2024-02-21T06:04:38;99004.06;;;13.17;59.89
22964;BME280;11648;49.306;6.934;2024-02-21T06:07:06;99005.03;;;13.10;60.07
22964;BME280;11648;49.306;6.934;2024-02-21T06:09:33;99003.28;;;13.04;60.24
22964;BME280;11648;49.306;6.934;2024-02-21T06:12:00;98991.84;;;13.07;60.02
22964;BME280;11648;49.306;6.934;2024-02-21T06:14:26;98986.44;;;13.17;59.65
22964;BME280;11648;49.306;6.934;2024-02-21T06:16:53;98981.13;;;13.20;59.77
22964;BME280;11648;49.306;6.934;2024-02-21T06:19:20;98981.22;;;13.13;60.30
22964;BME280;11648;49.306;6.934;2024-02-21T06:21:47;98981.25;;;13.07;59.82
22964;BME280;11648;49.306;6.934;2024-02-21T06:24:14;98976.25;;;12.85;60.27
22964;BME280;11648;49.306;6.934;2024-02-21T06:26:41;98980.38;;;13.05;60.17
22964;BME280;11648;49.306;6.934;2024-02-21T06:29:08;98983.16;;;12.96;60.35
22964;BME280;11648;49.306;6.934;2024-02-21T06:31:35;98984.13;;;12.88;60.52
22964;BME280;11648;49.306;6.934;2024-02-21T06:34:02;98983.28;;;12.85;60.36
22964;BME280;11648;49.306;6.934;2024-02-21T06:36:29;98975.13;;;13.03;60.21
22964;BME280;11648;49.306;6.934;2024-02-21T06:38:56;98977.31;;;12.68;61.07
22964;BME280;11648;49.306;6.934;2024-02-21T06:41:24;98979.94;;;12.69;60.81
22964;BME280;11648;49.306;6.934;2024-02-21T06:43:51;98972.69;;;12.88;60.67
22964;BME280;11648;49.306;6.934;2024-02-21T06:46:27;98974.44;;;12.86;60.57
22964;BME280;11648;49.306;6.934;2024-02-21T06:48:59;98977.00;;;12.94;60.59
22964;BME280;11648;49.306;6.934;2024-02-21T06:51:27;98975.28;;;12.93;60.36
22964;BME280;11648;49.306;6.934;2024-02-21T06:53:55;98969.91;;;12.99;60.14
22964;BME280;11648;49.306;6.934;2024-02-21T06:56:25;98972.69;;;12.86;60.26
22964;BME280;11648;49.306;6.934;2024-02-21T06:58:56;98967.47;;;12.80;60.24
22964;BME280;11648;49.306;6.934;2024-02-21T07:01:24;98973.75;;;12.70;60.48
22964;BME280;11648;49.306;6.934;2024-02-21T07:03:51;98971.78;;;12.89;59.71
22964;BME280;11648;49.306;6.934;2024-02-21T07:06:18;98971.66;;;13.00;59.36
22964;BME280;11648;49.306;6.934;2024-02-21T07:08:45;98966.13;;;13.19;58.96
22964;BME280;11648;49.306;6.934;2024-02-21T07:11:12;98968.72;;;13.24;58.97
22964;BME280;11648;49.306;6.934;2024-02-21T07:13:39;98973.28;;;13.11;59.18
22964;BME280;11648;49.306;6.934;2024-02-21T07:16:07;98968.78;;;13.21;58.89
22964;BME280;11648;49.306;6.934;2024-02-21T07:18:34;98963.38;;;13.27;59.03
22964;BME280;11648;49.306;6.934;2024-02-21T07:21:01;98961.38;;;13.44;58.49
22964;BME280;11648;49.306;6.934;2024-02-21T07:23:28;98956.09;;;13.46;58.58
22964;BME280;11648;49.306;6.934;2024-02-21T07:25:55;98959.91;;;13.25;59.17
22964;BME280;11648;49.306;6.934;2024-02-21T07:28:22;98964.13;;;13.38;58.99
22964;BME280;11648;49.306;6.934;2024-02-21T07:30:49;98960.66;;;13.33;59.03
22964;BME280;11648;49.306;6.934;2024-02-21T07:33:16;98953.28;;;13.56;58.77
22964;BME280;11648;49.306;6.934;2024-02-21T07:35:43;98959.88;;;13.26;59.71
22964;BME280;11648;49.306;6.934;2024-02-21T07:38:11;98942.53;;;13.65;58.79
22964;BME280;11648;49.306;6.934;2024-02-21T07:40:39;98938.81;;;13.78;58.19
22964;BME280;11648;49.306;6.934;2024-02-21T07:43:06;98941.31;;;13.88;58.42
22964;BME280;11648;49.306;6.934;2024-02-21T07:45:33;98936.88;;;13.90;57.94
22964;BME280;11648;49.306;6.934;2024-02-21T07:48:00;98921.44;;;14.13;57.55
22964;BME280;11648;49.306;6.934;2024-02-21T07:50:27;98918.69;;;14.19;57.70
22964;BME280;11648;49.306;6.934;2024-02-21T07:52:54;98922.00;;;14.30;57.65
22964;BME280;11648;49.306;6.934;2024-02-21T07:55:21;98908.94;;;14.22;57.49
22964;BME280;11648;49.306;6.934;2024-02-21T07:57:48;98915.63;;;14.43;57.13
22964;BME280;11648;49.306;6.934;2024-02-21T08:00:16;98920.88;;;14.46;56.48
22964;BME280;11648;49.306;6.934;2024-02-21T08:02:48;98927.78;;;14.55;56.01
22964;BME280;11648;49.306;6.934;2024-02-21T08:05:15;98925.69;;;14.70;55.73
22964;BME280;11648;49.306;6.934;2024-02-21T08:07:42;98927.22;;;14.82;55.57
22964;BME280;11648;49.306;6.934;2024-02-21T08:10:09;98920.59;;;14.61;56.12
22964;BME280;11648;49.306;6.934;2024-02-21T08:12:36;98925.53;;;14.79;55.29
22964;BME280;11648;49.306;6.934;2024-02-21T08:15:03;98923.53;;;14.91;55.31
22964;BME280;11648;49.306;6.934;2024-02-21T08:17:30;98921.78;;;15.29;54.47
22964;BME280;11648;49.306;6.934;2024-02-21T08:19:57;98921.38;;;15.46;53.75
22964;BME280;11648;49.306;6.934;2024-02-21T08:22:24;98923.13;;;15.49;53.61
22964;BME280;11648;49.306;6.934;2024-02-21T08:24:53;98918.25;;;14.88;54.11
22964;BME280;11648;49.306;6.934;2024-02-21T08:27:20;98915.31;;;15.41;53.10
22964;BME280;11648;49.306;6.934;2024-02-21T08:29:47;98899.59;;;15.70;52.71
22964;BME280;11648;49.306;6.934;2024-02-21T08:32:13;98897.59;;;15.43;52.32
22964;BME280;11648;49.306;6.934;2024-02-21T08:34:40;98897.06;;;15.27;52.48
22964;BME280;11648;49.306;6.934;2024-02-21T08:37:07;98888.88;;;15.75;52.13
22964;BME280;11648;49.306;6.934;2024-02-21T08:39:34;98882.91;;;16.01;51.05
22964;BME280;11648;49.306;6.934;2024-02-21T08:42:01;98888.38;;;15.95;51.07
22964;BME280;11648;49.306;6.934;2024-02-21T08:44:28;98877.44;;;16.07;50.48
22964;BME280;11648;49.306;6.934;2024-02-21T08:46:55;98878.91;;;16.18;50.96
22964;BME280;11648;49.306;6.934;2024-02-21T08:49:23;98875.47;;;15.44;51.56
22964;BME280;11648;49.306;6.934;2024-02-21T08:52:00;98860.31;;;15.85;50.53
22964;BME280;11648;49.306;6.934;2024-02-21T08:54:26;98869.94;;;16.22;50.88
22964;BME280;11648;49.306;6.934;2024-02-21T08:56:54;98866.91;;;16.04;50.89
22964;BME280;11648;49.306;6.934;2024-02-21T08:59:21;98851.63;;;16.44;50.50
22964;BME280;11648;49.306;6.934;2024-02-21T09:01:48;98849.66;;;16.20;50.68
22964;BME280;11648;49.306;6.934;2024-02-21T09:04:15;98836.66;;;16.40;49.96
22964;BME280;11648;49.306;6.934;2024-02-21T09:06:42;98834.63;;;16.50;49.74
22964;BME280;11648;49.306;6.934;2024-02-21T09:09:09;98830.38;;;16.43;49.70
22964;BME280;11648;49.306;6.934;2024-02-21T09:11:36;98830.44;;;16.41;49.60
22964;BME280;11648;49.306;6.934;2024-02-21T09:14:04;98822.72;;;16.32;49.94
22964;BME280;11648;49.306;6.934;2024-02-21T09:16:34;98822.47;;;16.41;49.94
22964;BME280;11648;49.306;6.934;2024-02-21T09:19:01;98803.28;;;16.92;48.88
22964;BME280;11648;49.306;6.934;2024-02-21T09:21:28;98806.94;;;17.15;48.91
22964;BME280;11648;49.306;6.934;2024-02-21T09:23:55;98805.44;;;17.07;48.43
22964;BME280;11648;49.306;6.934;2024-02-21T09:26:26;98799.09;;;17.11;48.18
22964;BME280;11648;49.306;6.934;2024-02-21T09:28:53;98802.00;;;17.03;47.85
22964;BME280;11648;49.306;6.934;2024-02-21T09:31:20;98789.44;;;17.62;47.22
22964;BME280;11648;49.306;6.934;2024-02-21T09:33:47;98796.69;;;17.84;47.00
22964;BME280;11648;49.306;6.934;2024-02-21T09:36:14;98771.84;;;17.58;46.19
22964;BME280;11648;49.306;6.934;2024-02-21T09:38:41;98774.56;;;17.55;46.55
22964;BME280;11648;49.306;6.934;2024-02-21T09:43:36;98752.34;;;17.83;45.78
22964;BME280;11648;49.306;6.934;2024-02-21T09:46:07;98735.66;;;18.25;45.59
22964;BME280;11648;49.306;6.934;2024-02-21T09:51:16;98731.00;;;18.55;44.33
22964;BME280;11648;49.306;6.934;2024-02-21T09:53:44;98733.69;;;17.83;45.11
22964;BME280;11648;49.306;6.934;2024-02-21T09:56:28;98729.47;;;18.48;44.80
22964;BME280;11648;49.306;6.934;2024-02-21T09:58:55;98727.94;;;19.09;43.78
22964;BME280;11648;49.306;6.934;2024-02-21T10:01:23;98720.38;;;18.99;43.03
22964;BME280;11648;49.306;6.934;2024-02-21T10:04:00;98730.00;;;18.58;43.73
22964;BME280;11648;49.306;6.934;2024-02-21T10:06:30;98731.94;;;18.54;43.80
22964;BME280;11648;49.306;6.934;2024-02-21T10:08:57;98729.41;;;18.26;44.55
22964;BME280;11648;49.306;6.934;2024-02-21T10:11:24;98733.63;;;18.32;44.44
22964;BME280;11648;49.306;6.934;2024-02-21T10:14:05;98723.84;;;18.09;44.72
22964;BME280;11648;49.306;6.934;2024-02-21T10:16:33;98726.81;;;17.77;45.93
22964;BME280;11648;49.306;6.934;2024-02-21T10:19:00;98720.50;;;17.80;45.83
22964;BME280;11648;49.306;6.934;2024-02-21T10:21:27;98722.53;;;16.94;46.91
22964;BME280;11648;49.306;6.934;2024-02-21T10:23:54;98717.13;;;17.23;46.74
22964;BME280;11648;49.306;6.934;2024-02-21T10:26:21;98716.13;;;17.26;46.97
22964;BME280;11648;49.306;6.934;2024-02-21T10:28:48;98718.59;;;17.06;47.69
22964;BME280;11648;49.306;6.934;2024-02-21T10:31:28;98706.16;;;17.33;47.41
22964;BME280;11648;49.306;6.934;2024-02-21T10:34:00;98713.03;;;17.13;47.46
22964;BME280;11648;49.306;6.934;2024-02-21T10:36:30;98706.09;;;17.08;46.87
22964;BME280;11648;49.306;6.934;2024-02-21T10:38:57;98707.75;;;17.12;46.81
22964;BME280;11648;49.306;6.934;2024-02-21T10:41:24;98705.78;;;17.43;46.92
22964;BME280;11648;49.306;6.934;2024-02-21T10:43:53;98714.34;;;17.26;47.07
22964;BME280;11648;49.306;6.934;2024-02-21T10:46:23;98704.25;;;17.36;46.37
22964;BME280;11648;49.306;6.934;2024-02-21T10:49:20;98709.56;;;17.36;46.84
22964;BME280;11648;49.306;6.934;2024-02-21T10:51:49;98712.13;;;17.65;46.64
22964;BME280;11648;49.306;6.934;2024-02-21T10:57:13;98700.91;;;17.31;46.37
22964;BME280;11648;49.306;6.934;2024-02-21T10:59:44;98704.47;;;17.04;47.12
22964;BME280;11648;49.306;6.934;2024-02-21T11:02:11;98710.69;;;16.47;47.66
22964;BME280;11648;49.306;6.934;2024-02-21T11:04:39;98708.94;;;16.46;48.01
22964;BME280;11648;49.306;6.934;2024-02-21T11:07:07;98706.03;;;16.83;47.54
22964;BME280;11648;49.306;6.934;2024-02-21T11:09:37;98697.50;;;16.73;47.43
22964;BME280;11648;49.306;6.934;2024-02-21T11:12:05;98698.03;;;16.55;48.02
22964;BME280;11648;49.306;6.934;2024-02-21T11:14:33;98680.88;;;16.93;47.34
22964;BME280;11648;49.306;6.934;2024-02-21T11:17:15;98679.06;;;16.95;47.57
22964;BME280;11648;49.306;6.934;2024-02-21T11:19:43;98677.84;;;16.77;47.64
22964;BME280;11648;49.306;6.934;2024-02-21T11:22:15;98665.25;;;16.84;47.31
22964;BME280;11648;49.306;6.934;2024-02-21T11:24:43;98658.53;;;16.99;47.20
22964;BME280;11648;49.306;6.934;2024-02-21T11:27:19;98664.66;;;17.01;46.77
22964;BME280;11648;49.306;6.934;2024-02-21T11:29:56;98652.81;;;16.85;46.49
22964;BME280;11648;49.306;6.934;2024-02-21T11:32:25;98647.28;;;16.91;46.72
22964;BME280;11648;49.306;6.934;2024-02-21T11:34:59;98635.56;;;16.70;46.73
22964;BME280;11648;49.306;6.934;2024-02-21T11:37:32;98619.44;;;16.74;46.51
22964;BME280;11648;49.306;6.934;2024-02-21T11:40:00;98622.47;;;16.90;46.35
22964;BME280;11648;49.306;6.934;2024-02-21T11:42:28;98614.84;;;17.06;46.06
22964;BME280;11648;49.306;6.934;2024-02-21T11:44:56;98609.81;;;17.23;46.29
22964;BME280;11648;49.306;6.934;2024-02-21T11:47:24;98604.28;;;17.29;46.49
22964;BME280;11648;49.306;6.934;2024-02-21T11:49:51;98586.91;;;17.19;45.66
22964;BME280;11648;49.306;6.934;2024-02-21T11:52:22;98574.72;;;17.37;45.42
22964;BME280;11648;49.306;6.934;2024-02-21T11:54:52;98576.97;;;17.24;45.64
22964;BME280;11648;49.306;6.934;2024-02-21T11:57:20;98561.94;;;17.46;45.20
22964;BME280;11648;49.306;6.934;2024-02-21T11:59:47;98555.47;;;17.53;44.90
22964;BME280;11648;49.306;6.934;2024-02-21T12:02:15;98534.78;;;17.61;44.82
22964;BME280;11648;49.306;6.934;2024-02-21T12:04:43;98536.28;;;17.68;44.78
22964;BME280;11648;49.306;6.934;2024-02-21T12:07:10;98534.63;;;16.93;45.50
22964;BME280;11648;49.306;6.934;2024-02-21T12:09:37;98532.03;;;17.40;45.37
22964;BME280;11648;49.306;6.934;2024-02-21T12:12:05;98524.59;;;17.49;44.64
22964;BME280;11648;49.306;6.934;2024-02-21T12:14:34;98503.75;;;17.84;44.40
22964;BME280;11648;49.306;6.934;2024-02-21T12:17:02;98500.63;;;17.72;44.64
22964;BME280;11648;49.306;6.934;2024-02-21T12:19:33;98493.53;;;17.73;44.34
22964;BME280;11648;49.306;6.934;2024-02-21T12:22:00;98494.84;;;17.38;44.96
22964;BME280;11648;49.306;6.934;2024-02-21T12:24:28;98507.16;;;16.93;45.66
22964;BME280;11648;49.306;6.934;2024-02-21T12:26:56;98475.84;;;17.01;45.75
22964;BME280;11648;49.306;6.934;2024-02-21T12:29:24;98478.06;;;16.63;46.27
22964;BME280;11648;49.306;6.934;2024-02-21T12:31:51;98470.78;;;16.93;45.91
22964;BME280;11648;49.306;6.934;2024-02-21T12:34:18;98456.97;;;17.07;45.78
22964;BME280;11648;49.306;6.934;2024-02-21T12:37:01;98453.81;;;16.46;46.67
22964;BME280;11648;49.306;6.934;2024-02-21T12:39:28;98449.13;;;17.04;45.96
22964;BME280;11648;49.306;6.934;2024-02-21T12:41:55;98451.50;;;16.88;45.82
22964;BME280;11648;49.306;6.934;2024-02-21T12:44:25;98447.88;;;16.89;45.64
22964;BME280;11648;49.306;6.934;2024-02-21T12:46:52;98434.00;;;17.06;45.95
22964;BME280;11648;49.306;6.934;2024-02-21T12:49:21;98419.03;;;17.25;45.43
22964;BME280;11648;49.306;6.934;2024-02-21T12:51:48;98430.44;;;16.82;46.40
22964;BME280;11648;49.306;6.934;2024-02-21T12:54:15;98431.19;;;16.86;46.25
22964;BME280;11648;49.306;6.934;2024-02-21T12:56:42;98422.34;;;16.60;46.93
22964;BME280;11648;49.306;6.934;2024-02-21T12:59:08;98431.84;;;16.67;47.23
22964;BME280;11648;49.306;6.934;2024-02-21T13:01:36;98408.34;;;16.80;46.70
22964;BME280;11648;49.306;6.934;2024-02-21T13:04:05;98413.63;;;17.05;46.56
22964;BME280;11648;49.306;6.934;2024-02-21T13:06:32;98411.19;;;17.22;45.63
22964;BME280;11648;49.306;6.934;2024-02-21T13:08:59;98393.31;;;17.25;45.70
22964;BME280;11648;49.306;6.934;2024-02-21T13:11:29;98401.41;;;17.46;45.37